Marshall, TX

6:32 PM CDT on October 14, 2019 (GMT -0500)
Harrison County

Weather History for KASL - August, 2019

Change the Weather History Date:

Friday, August 9, 2019

  Actual Average (WUND) Record (WUND)
Temperature  
Mean Temperature 86 °F -  
Max Temperature 96 °F - - (-1)
Min Temperature 75 °F - - (-1)
Cooling Degree Days 20    
Growing Degree Days 36 (Base 50)    
Moisture  
Dew Point 73 °F    
Average Humidity 71    
Maximum Humidity 92    
Minimum Humidity 39    
Precipitation  
Precipitation 0.00 in - - ()
Sea Level Pressure  
Sea Level Pressure 29.96 in    
Wind  
Wind Speed 8 mph (SW)    
Max Wind Speed 15 mph    
Max Gust Speed 22 mph    
Visibility 10 miles    
Events      
Averages and records for this station are not official NWS values.
T = Trace of Precipitation, MM = Missing Value Source: NWS Daily Summary

Daily Weather History Graph

Daily Weather History Graph

Search for Another Location

Airport or City:

Astronomy

Aug. 09, 2019 Rise Set
Actual Time 6:36 AM CDT 8:08 PM CDT
Civil Twilight 6:10 AM CDT 8:34 PM CDT
Nautical Twilight 5:39 AM CDT 9:05 PM CDT
Astronomical Twilight 5:05 AM CDT 9:38 PM CDT
Moon 3:46 PM CDT (8/9) 1:36 AM CDT (8/9)
Length of Visible Light 14h 23m
Length of Day
13h 31m
Waxing Gibbous, 70% of the Moon is Illuminated
Aug 9
Waxing Gibbous
Aug 15
Full
Aug 23
Last Quarter
Aug 30
New
Sep 5
First Quarter

Hourly Weather History & Observations

Time (CDT) Temp. Heat Index Dew Point Humidity Pressure Visibility Wind Dir Wind Speed Gust Speed Precip Events Conditions
12:15 AM 77.4 °F - 71.6 °F 82% 29.93 in 10.0 mi North - - N/A   Clear
12:35 AM 78.1 °F - 71.4 °F 80% 29.93 in 10.0 mi North - - N/A   Clear
12:55 AM 77.5 °F - 71.4 °F 81% 29.93 in 10.0 mi North - - N/A   Clear
1:15 AM 77.4 °F - 71.6 °F 82% 29.94 in 10.0 mi North - - N/A   Clear
1:35 AM 77.4 °F - 72.0 °F 83% 29.94 in 10.0 mi North - - N/A   Clear
1:55 AM 77.4 °F - 72.1 °F 84% 29.95 in 10.0 mi North - - N/A   Clear
2:15 AM 76.3 °F - 71.8 °F 86% 29.94 in 10.0 mi North - - N/A   Clear
2:35 AM 75.2 °F - 71.6 °F 89% 29.94 in 10.0 mi North - - N/A   Clear
2:55 AM 76.3 °F - 72.1 °F 87% 29.94 in 10.0 mi North - - N/A   Clear
3:15 AM 75.2 °F - 71.6 °F 89% 29.93 in 10.0 mi North - - N/A   Clear
3:35 AM 75.2 °F - 72.1 °F 90% 29.94 in 10.0 mi North - - N/A   Clear
3:55 AM 76.3 °F - 73.0 °F 90% 29.94 in 10.0 mi North - - N/A   Clear
4:15 AM 75.2 °F - 72.1 °F 90% 29.93 in 10.0 mi North - - N/A   Clear
4:35 AM 75.2 °F - 72.1 °F 90% 29.93 in 7.0 mi North - - N/A   Clear
4:55 AM 75.2 °F - 72.5 °F 91% 29.94 in 7.0 mi North - - N/A   Clear
5:15 AM 75.2 °F - 72.5 °F 91% 29.94 in 7.0 mi North - - N/A   Clear
5:35 AM 75.2 °F - 72.5 °F 91% 29.95 in 7.0 mi North - - N/A   Clear
5:55 AM 75.2 °F - 72.5 °F 91% 29.96 in 7.0 mi North - - N/A   Clear
6:15 AM 75.2 °F - 72.5 °F 91% 29.96 in 7.0 mi North - - N/A   Clear
6:35 AM 75.2 °F - 72.7 °F 92% 29.97 in 7.0 mi North - - N/A   Clear
6:55 AM 75.2 °F - 72.7 °F 92% 29.98 in 5.0 mi North - - N/A   Clear
7:15 AM 75.2 °F - 72.7 °F 92% 29.98 in 5.0 mi North - - N/A   Mostly Cloudy
7:35 AM 76.3 °F - 73.6 °F 91% 29.97 in 7.0 mi North - - N/A   Scattered Clouds
7:55 AM 76.6 °F - 73.4 °F 90% 29.98 in 7.0 mi North - - N/A   Mostly Cloudy
8:15 AM 78.3 °F - 73.9 °F 87% 29.99 in 10.0 mi SSW 6.9 mph - N/A   Mostly Cloudy
8:35 AM 79.9 °F - 74.5 °F 83% 29.99 in 10.0 mi SW 9.2 mph - N/A   Mostly Cloudy
8:55 AM 82.4 °F 89.5 °F 75.4 °F 79% 30.00 in 10.0 mi SW 12.7 mph 17.3 mph N/A   Overcast
9:15 AM 82.4 °F 89.0 °F 74.7 °F 77% 30.00 in 10.0 mi SW 12.7 mph - N/A   Mostly Cloudy
9:35 AM 85.1 °F 94.5 °F 76.1 °F 74% 30.01 in 10.0 mi SW 10.4 mph - N/A   Scattered Clouds
9:55 AM 85.1 °F 94.1 °F 75.4 °F 73% 30.01 in 10.0 mi SW 9.2 mph 18.4 mph N/A   Mostly Cloudy
10:15 AM 85.1 °F 92.9 °F 74.5 °F 70% 30.01 in 10.0 mi SW 15.0 mph 21.9 mph N/A   Overcast
10:35 AM 85.3 °F 92.6 °F 73.8 °F 68% 30.01 in 10.0 mi SW 8.1 mph - N/A   Overcast
10:55 AM 87.4 °F 95.8 °F 74.1 °F 64% 30.01 in 10.0 mi SW 8.1 mph 17.3 mph N/A   Overcast
11:15 AM 87.3 °F 94.9 °F 73.4 °F 63% 30.01 in 10.0 mi North - - N/A   Mostly Cloudy
11:35 AM 87.4 °F 95.3 °F 73.4 °F 63% 30.01 in 10.0 mi North - - N/A   Mostly Cloudy
11:55 AM 90.0 °F 100.2 °F 74.8 °F 61% 30.01 in 10.0 mi SW 10.4 mph - N/A   Scattered Clouds
12:15 PM 90.0 °F 98.5 °F 73.4 °F 58% 30.01 in 10.0 mi North - - N/A   Scattered Clouds
12:35 PM 90.0 °F 97.4 °F 72.1 °F 56% 30.00 in 10.0 mi SSW 10.4 mph - N/A   Scattered Clouds
12:55 PM 92.5 °F 101.3 °F 73.0 °F 53% 30.00 in 10.0 mi North - - N/A   Scattered Clouds
1:15 PM 92.5 °F 101.3 °F 73.2 °F 53% 30.00 in 10.0 mi North - - N/A   Mostly Cloudy
1:35 PM 92.7 °F 100.5 °F 72.1 °F 51% 29.99 in 10.0 mi SW 6.9 mph - N/A   Scattered Clouds
1:55 PM 92.5 °F 99.6 °F 71.2 °F 50% 29.98 in 10.0 mi North - - N/A   Scattered Clouds
2:15 PM 92.7 °F 98.3 °F 69.8 °F 47% 29.98 in 10.0 mi North - - N/A   Scattered Clouds
2:35 PM 95.0 °F 101.9 °F 70.9 °F 45% 29.97 in 10.0 mi North - - N/A   Scattered Clouds
2:55 PM 93.7 °F 99.3 °F 69.4 °F 45% 29.96 in 10.0 mi North - - N/A   Scattered Clouds
3:15 PM 95.0 °F 100.1 °F 68.4 °F 42% 29.95 in 10.0 mi North - - N/A   Scattered Clouds
3:35 PM 96.3 °F 100.8 °F 67.6 °F 39% 29.94 in 10.0 mi North - - N/A   Clear
3:55 PM 94.6 °F 101.1 °F 70.3 °F 45% 29.94 in 10.0 mi North - - N/A   Scattered Clouds
4:15 PM 92.5 °F 97.4 °F 69.1 °F 46% 29.94 in 10.0 mi North - - N/A   Mostly Cloudy
4:35 PM 92.5 °F 99.0 °F 70.7 °F 49% 29.93 in 10.0 mi North - - N/A   Mostly Cloudy
4:55 PM 95.0 °F 103.2 °F 72.0 °F 47% 29.92 in 10.0 mi North - - N/A   Scattered Clouds
5:15 PM 94.8 °F 103.4 °F 72.3 °F 48% 29.92 in 10.0 mi North - - N/A   Scattered Clouds
5:35 PM 95.0 °F 101.9 °F 70.9 °F 45% 29.92 in 10.0 mi North - - N/A   Clear
5:55 PM 94.8 °F 102.8 °F 71.6 °F 47% 29.91 in 10.0 mi North - - N/A   Clear
6:15 PM 92.5 °F 99.0 °F 71.1 °F 49% 29.91 in 10.0 mi North - - N/A   Clear
6:35 PM 92.5 °F 99.6 °F 71.4 °F 50% 29.91 in 10.0 mi North - - N/A   Clear
6:55 PM 92.5 °F 100.1 °F 72.0 °F 51% 29.91 in 10.0 mi North - - N/A   Clear
7:15 PM 90.0 °F 96.4 °F 71.1 °F 54% 29.91 in 10.0 mi North - - N/A   Clear
7:35 PM 90.0 °F 97.9 °F 73.0 °F 57% 29.91 in 10.0 mi Calm Calm - N/A   Clear
7:55 PM 88.5 °F 97.3 °F 74.1 °F 62% 29.91 in 10.0 mi Calm Calm - N/A   Clear
8:15 PM 85.1 °F 92.9 °F 74.5 °F 70% 29.91 in 10.0 mi Calm Calm - N/A   Clear
8:35 PM 85.1 °F 94.1 °F 75.7 °F 73% 29.92 in 10.0 mi North - - N/A   Clear
8:55 PM 85.1 °F 94.5 °F 76.1 °F 74% 29.92 in 10.0 mi North - - N/A   Clear
9:15 PM 82.4 °F 89.5 °F 75.2 °F 79% 29.93 in 10.0 mi North - - N/A   Clear
9:35 PM 78.8 °F - 73.2 °F 83% 29.94 in 10.0 mi North - - N/A   Clear
9:55 PM 79.0 °F - 73.2 °F 82% 29.94 in 10.0 mi Calm Calm - N/A   Clear
10:15 PM 78.8 °F - 72.7 °F 81% 29.94 in 10.0 mi North - - N/A   Clear
10:55 PM 77.4 °F - 72.7 °F 85% 29.94 in 10.0 mi North - - N/A   Clear
11:15 PM 77.9 °F - 72.7 °F 84% 29.95 in 10.0 mi Calm Calm - N/A   Clear
11:35 PM 78.8 °F - 72.5 °F 81% 29.95 in 10.0 mi North - - N/A   Clear
11:55 PM 79.0 °F - 72.5 °F 80% 29.95 in 10.0 mi North - - N/A   Clear